METAR Data
IDs: Format: Raw Decoded Include TAF

Data at: 1746 UTC 25 Mar 2019

KMKN 251735Z AUTO 05009G15KT 10SM CLR 20/09 A3024 RMK AO2 T02020087
KMKN 251715Z AUTO 01008G14KT 10SM CLR 20/09 A3024 RMK AO2 T01980094
KMKN 251655Z AUTO 02010G15KT 10SM CLR 19/10 A3024 RMK AO2 T01940096
KMKN 251635Z AUTO 04007KT 10SM CLR 19/10 A3024 RMK AO2 T01890097
KMKN 251615Z AUTO 05007KT 10SM CLR 19/10 A3023 RMK AO2 T01880101
KMKN 251555Z AUTO 06007KT 10SM CLR 18/10 A3023 RMK AO2 T01780096
KMKN 251535Z AUTO 04005KT 10SM CLR 17/10 A3022 RMK AO2 T01710097
KMKN 251515Z AUTO 06006KT 10SM CLR 16/10 A3021 RMK AO2 T01640100
KMKN 251455Z AUTO 01007KT 10SM CLR 15/10 A3021 RMK AO2 T01490101
KMKN 251435Z AUTO 01004KT 10SM CLR 14/10 A3019 RMK AO2 T01400100
KMKN 251415Z AUTO 34005KT 10SM CLR 13/10 A3019 RMK AO2 T01250097
KMKN 251355Z AUTO 31005KT 10SM SCT038 12/09 A3018 RMK AO2 T01150092
KMKN 251335Z AUTO 32004KT 10SM OVC036 11/09 A3017 RMK AO2 T01140093
KMKN 251315Z AUTO 33005KT 10SM OVC034 11/09 A3016 RMK AO2 T01140091
KMKN 251255Z AUTO 32005KT 10SM SCT034 11/09 A3016 RMK AO2 T01110091
KMKN 251235Z AUTO 33005KT 10SM CLR 11/09 A3015 RMK AO2 T01120091
KMKN 251215Z AUTO 33006KT 10SM CLR 12/09 A3014 RMK AO2 T01150092
KMKN 251155Z AUTO 33007KT 10SM SCT034 12/10 A3014 RMK AO2 T01190095 10179 20119
KMKN 251135Z AUTO 34007KT 10SM OVC034 13/10 A3014 RMK AO2 T01270101
KMKN 251115Z AUTO 34009KT 10SM OVC031 13/11 A3013 RMK AO2 T01310107
KMKN 251055Z AUTO 32006KT 10SM BKN027 13/11 A3011 RMK AO2 T01250106
KMKN 251035Z AUTO 32007KT 10SM CLR 12/10 A3009 RMK AO2 T01200100
KMKN 251015Z AUTO 32005KT 10SM CLR 13/10 A3007 RMK AO2 T01250101
KMKN 250955Z AUTO 32005KT 10SM CLR 14/10 A3006 RMK AO2 T01350102
KMKN 250935Z AUTO 31003KT 10SM CLR 14/10 A3006 RMK AO2 T01400104
KMKN 250915Z AUTO 32004KT 10SM CLR 14/10 A3006 RMK AO2 T01400102
KMKN 250855Z AUTO 30003KT 10SM CLR 14/10 A3006 RMK AO2 T01420103
KMKN 250835Z AUTO 31003KT 10SM CLR 15/10 A3007 RMK AO2 T01450103
KMKN 250815Z AUTO 31003KT 10SM CLR 15/11 A3007 RMK AO2 T01480105
KMKN 250755Z AUTO 31004KT 10SM CLR 15/10 A3007 RMK AO2 T01500104
KMKN 250735Z AUTO 32005KT 10SM CLR 16/11 A3006 RMK AO2 T01560105
KMKN 250715Z AUTO 30003KT 10SM CLR 16/11 A3007 RMK AO2 T01600106
KMKN 250655Z AUTO 31004KT 10SM CLR 17/11 A3007 RMK AO2 T01650107
KMKN 250635Z AUTO 33003KT 10SM CLR 17/11 A3007 RMK AO2 T01670109
KMKN 250615Z AUTO 34005KT 10SM CLR 17/11 A3007 RMK AO2 T01700110
KMKN 250555Z AUTO 33005KT 10SM CLR 18/11 A3006 RMK AO2 LTG DSNT NE T01790110 10274 20178 402810143
KMKN 250535Z AUTO 27005KT 10SM CLR 18/11 A3006 RMK AO2 T01800111
KMKN 250515Z AUTO 33006KT 10SM CLR 18/11 A3006 RMK AO2 T01800113
KMKN 250455Z AUTO 34006KT 10SM CLR 19/12 A3005 RMK AO2 T01860115
KMKN 250435Z AUTO 30005KT 10SM CLR 19/12 A3005 RMK AO2 T01880121
KMKN 250415Z AUTO 32006KT 10SM CLR 20/13 A3004 RMK AO2 T01960127
KMKN 250355Z AUTO 31006KT 10SM CLR 21/15 A3004 RMK AO2 T02120150
KMKN 250335Z AUTO 31005KT 10SM CLR 21/16 A3003 RMK AO2 T02060155
KMKN 250315Z AUTO 21009KT 10SM CLR 20/16 A3000 RMK AO2 T02030160
KMKN 250255Z AUTO 20007KT 10SM CLR 20/15 A3000 RMK AO2 T01950151
KMKN 250235Z AUTO 19007KT 10SM CLR 21/15 A2999 RMK AO2 LTG DSNT NE T02060153
KMKN 250215Z AUTO 19007KT 10SM CLR 21/15 A2999 RMK AO2 T02080150
KMKN 250155Z AUTO 19006KT 10SM CLR 22/15 A2998 RMK AO2 LTG DSNT NW T02190148
KMKN 250135Z AUTO 19006KT 10SM CLR 22/14 A2998 RMK AO2 T02210144
KMKN 250115Z AUTO 19006KT 10SM CLR 24/14 A2997 RMK AO2 T02350142
KMKN 250055Z AUTO 17005KT 10SM CLR 24/14 A2997 RMK AO2 T02420138
KMKN 250035Z AUTO 18005KT 10SM CLR 25/14 A2997 RMK AO2 T02540137
KMKN 250015Z AUTO 21006KT 10SM CLR 27/13 A2996 RMK AO2 T02660134
KMKN 242355Z AUTO 21008KT 10SM CLR 28/13 A2996 RMK AO2 T02750128 10281 20239
KMKN 242335Z AUTO 19007KT 10SM CLR 28/13 A2996 RMK AO2 T02750134
KMKN 242315Z AUTO 20008KT 10SM CLR 28/13 A2996 RMK AO2 T02770130
KMKN 242255Z AUTO 20011KT 10SM CLR 28/13 A2996 RMK AO2 T02800129
KMKN 242235Z AUTO 20006KT 10SM SCT060 28/13 A2996 RMK AO2 T02780133
KMKN 242215Z AUTO 21009KT 10SM SCT060 27/14 A2997 RMK AO2 T02690138
KMKN 242155Z AUTO 22010G15KT 10SM CLR 28/14 A2998 RMK AO2 T02800140
KMKN 242135Z AUTO 22009KT 10SM CLR 28/14 A2999 RMK AO2 T02800140
KMKN 242115Z AUTO 22012G16KT 10SM CLR 27/15 A2999 RMK AO2 T02740148
KMKN 242055Z AUTO 22008G14KT 10SM CLR 27/15 A2999 RMK AO2 T02740148
KMKN 242035Z AUTO 23011G18KT 10SM CLR 27/15 A3000 RMK AO2 T02740154
KMKN 242015Z AUTO 21010KT 10SM SCT044 27/16 A3001 RMK AO2 T02660159
KMKN 241955Z AUTO 20010G18KT 10SM CLR 26/16 A3002 RMK AO2 T02590157
KMKN 241935Z AUTO 22010G17KT 190V250 10SM CLR 27/16 A3002 RMK AO2 T02680160
KMKN 241915Z AUTO 22009G17KT 10SM SCT036 26/16 A3003 RMK AO2 T02590159
KMKN 241855Z AUTO 22011G17KT 10SM BKN036 26/16 A3004 RMK AO2 T02560160
KMKN 241835Z AUTO 22012G17KT 10SM BKN034 26/16 A3005 RMK AO2 T02560163
KMKN 241815Z AUTO 22009G16KT 10SM BKN032 25/17 A3005 RMK AO2 T02500165
KMKN 241755Z AUTO 24010KT 10SM SCT030 24/16 A3006 RMK AO2 T02430160 10245 20143
KMKN 241735Z AUTO 22013G19KT 10SM SCT029 24/16 A3007 RMK AO2 T02400161
KMKN 241715Z AUTO 22015G21KT 10SM BKN029 24/16 A3007 RMK AO2 T02380159
KMKN 241655Z AUTO 22015G19KT 10SM BKN027 23/16 A3007 RMK AO2 T02280157
KMKN 241635Z AUTO 23014G20KT 10SM BKN027 23/16 A3007 RMK AO2 T02260160
KMKN 241615Z AUTO 24013G18KT 10SM BKN023 OVC029 23/16 A3008 RMK AO2 T02250164
KMKN 241555Z AUTO 21014KT 10SM SCT023 SCT028 22/16 A3007 RMK AO2 T02190164
KMKN 241535Z AUTO 21013G20KT 10SM SCT021 SCT028 21/17 A3007 RMK AO2 T02120169
KMKN 241515Z AUTO 22014G20KT 10SM SCT016 SCT028 21/17 A3007 RMK AO2 T02080168
KMKN 241455Z AUTO 20011G14KT 10SM SCT016 20/18 A3007 RMK AO2 T02040175
KMKN 241435Z AUTO 20013G17KT 10SM CLR 19/18 A3006 RMK AO2 T01920176
KMKN 241415Z AUTO 20011G19KT 10SM CLR 18/18 A3006 RMK AO2 T01810181
KMKN 241355Z AUTO 20013KT 10SM CLR 17/17 A3005 RMK AO2 T01710171
KMKN 241335Z AUTO 19008KT 10SM CLR 16/16 A3005 RMK AO2 T01580158
KMKN 241315Z AUTO 19008KT 10SM CLR 15/15 A3005 RMK AO2 T01530153
KMKN 241255Z AUTO 20007KT 7SM CLR 14/14 A3004 RMK AO2 T01430143
KMKN 241235Z AUTO 19007KT 10SM CLR 15/15 A3004 RMK AO2 T01480148
KMKN 241215Z AUTO 18006KT 10SM CLR 15/15 A3004 RMK AO2 T01500150
KMKN 241155Z AUTO 18005KT 10SM CLR 15/15 A3004 RMK AO2 T01520152 10178 20152
KMKN 241135Z AUTO 19007KT 10SM CLR 15/15 A3003 RMK AO2 T01540154
KMKN 241115Z AUTO 19007KT 10SM CLR 16/16 A3003 RMK AO2 T01590159
KMKN 241055Z AUTO 19007KT 10SM CLR 16/16 A3002 RMK AO2 T01620162
KMKN 241035Z AUTO 20007KT 10SM CLR 16/16 A3002 RMK AO2 T01640164
KMKN 241015Z AUTO 20008KT 10SM CLR 17/16 A3001 RMK AO2 T01670159
KMKN 240955Z AUTO 20009KT 10SM CLR 17/16 A3001 RMK AO2 T01680155
KMKN 240935Z AUTO 19011G16KT 10SM CLR 17/16 A3000 RMK AO2 T01700155
KMKN 240915Z AUTO 20010G16KT 10SM CLR 17/16 A3001 RMK AO2 T01710155
KMKN 240855Z AUTO 20011G18KT 10SM CLR 17/16 A3002 RMK AO2 T01720156
KMKN 240835Z AUTO 20012KT 10SM CLR 17/16 A3002 RMK AO2 T01710157
KMKN 240815Z AUTO 20010KT 10SM CLR 17/16 A3002 RMK AO2 T01710156
KMKN 240755Z AUTO 20011G17KT 10SM CLR 17/16 A3002 RMK AO2 T01740158
KMKN 240735Z AUTO 20011G17KT 10SM CLR 18/16 A3002 RMK AO2 T01750159
KMKN 240715Z AUTO 20013G17KT 10SM CLR 18/16 A3003 RMK AO2 T01760157
KMKN 240655Z AUTO 20014G19KT 10SM SCT021 18/16 A3003 RMK AO2 T01780158
KMKN 240635Z AUTO 21015G20KT 10SM SCT021 18/16 A3003 RMK AO2 T01770159
KMKN 240615Z AUTO 20013G17KT 10SM SCT019 18/16 A3003 RMK AO2 T01750159
KMKN 240555Z AUTO 19012G19KT 10SM BKN019 18/16 A3003 RMK AO2 T01760160 10214 20175 402310145